Time;durP1;ratioP1;P1;durP2;ratioP2;P2;SDS_P1;SDS_P2;PMS_P1;PMS_P2;Temp;Humidity;BMP_temperature;BMP_pressure;BME280_temperature;BME280_humidity;BME280_pressure;Samples;Min_cycle;Max_cycle;Signal;HPM_P1;HPM_P2
2023/09/29 00:00:20;;;;;;;9.73;6.35;;;23.20;54.10;;;;;;352687;28;1487;-56
2023/09/29 00:00:34;;;;;;;10.65;6.20;;;23.20;54.10;;;;;;352624;28;1113;-56
2023/09/29 00:00:45;;;;;;;11.18;6.65;;;23.20;54.10;;;;;;352682;28;1082;-56
2023/09/29 00:00:56;;;;;;;11.13;7.15;;;23.20;54.10;;;;;;352615;27;952;-56
2023/09/29 00:01:07;;;;;;;9.85;7.10;;;23.20;54.10;;;;;;352655;28;1388;-56
2023/09/29 00:01:17;;;;;;;10.35;6.95;;;23.20;54.10;;;;;;352651;28;1063;-56
2023/09/29 00:01:30;;;;;;;11.07;6.70;;;23.20;54.10;;;;;;352678;28;814;-56
2023/09/29 00:01:41;;;;;;;9.85;6.70;;;23.20;54.10;;;;;;352627;28;979;-56
2023/09/29 00:01:51;;;;;;;9.30;7.00;;;23.20;54.10;;;;;;352693;28;872;-56
2023/09/29 00:02:03;;;;;;;9.32;7.00;;;23.20;54.10;;;;;;352655;28;821;-57
2023/09/29 00:02:14;;;;;;;10.00;6.70;;;23.20;54.10;;;;;;352633;28;1050;-56
2023/09/29 00:02:24;;;;;;;8.73;6.20;;;23.20;54.10;;;;;;352677;28;1793;-56
2023/09/29 00:02:35;;;;;;;8.70;6.03;;;23.20;54.10;;;;;;352600;28;1153;-55
2023/09/29 00:02:47;;;;;;;8.68;6.38;;;23.20;54.10;;;;;;352763;28;1081;-57
2023/09/29 00:02:59;;;;;;;9.55;6.47;;;23.20;54.20;;;;;;352589;28;1015;-57
2023/09/29 00:03:12;;;;;;;9.98;6.57;;;23.20;54.20;;;;;;352656;28;1035;-56
2023/09/29 00:03:23;;;;;;;9.98;6.72;;;23.20;54.20;;;;;;352708;28;971;-56
2023/09/29 00:03:33;;;;;;;8.30;6.53;;;23.20;54.20;;;;;;352618;28;1059;-55
2023/09/29 00:03:46;;;;;;;8.00;6.32;;;23.20;54.20;;;;;;352616;28;1099;-56
2023/09/29 00:03:57;;;;;;;7.15;6.15;;;23.20;54.20;;;;;;352715;28;1086;-55
2023/09/29 00:04:08;;;;;;;7.43;6.05;;;23.20;54.20;;;;;;352605;28;1178;-56
2023/09/29 00:04:19;;;;;;;8.30;6.53;;;23.20;54.20;;;;;;352672;28;1243;-56
2023/09/29 00:04:29;;;;;;;9.55;6.78;;;23.20;54.20;;;;;;352745;27;880;-56
2023/09/29 00:04:40;;;;;;;10.40;7.17;;;23.20;54.20;;;;;;352635;28;967;-58
2023/09/29 00:04:51;;;;;;;9.57;6.93;;;23.20;54.20;;;;;;352697;28;1011;-55
2023/09/29 00:05:02;;;;;;;9.35;7.05;;;23.20;54.20;;;;;;352614;28;1617;-57
2023/09/29 00:05:17;;;;;;;9.05;7.03;;;23.20;54.30;;;;;;352663;28;885;-55
2023/09/29 00:05:28;;;;;;;9.32;6.95;;;23.20;54.30;;;;;;352711;28;888;-56
2023/09/29 00:05:39;;;;;;;9.27;6.93;;;23.20;54.40;;;;;;352673;28;979;-57
2023/09/29 00:05:49;;;;;;;9.47;6.60;;;23.20;54.40;;;;;;352684;28;824;-56
2023/09/29 00:06:00;;;;;;;10.00;6.53;;;23.20;54.40;;;;;;352491;28;1532;-56
2023/09/29 00:06:11;;;;;;;9.93;6.35;;;23.20;54.40;;;;;;352697;28;915;-56
2023/09/29 00:06:22;;;;;;;10.48;6.38;;;23.20;54.40;;;;;;352669;28;1043;-56
2023/09/29 00:06:33;;;;;;;10.20;6.35;;;23.20;54.50;;;;;;352708;28;837;-56
2023/09/29 00:06:44;;;;;;;9.52;6.32;;;23.20;54.40;;;;;;352568;28;1043;-56
2023/09/29 00:06:54;;;;;;;8.57;6.28;;;23.20;54.50;;;;;;352686;28;996;-56
2023/09/29 00:07:07;;;;;;;7.80;6.30;;;23.20;54.50;;;;;;352716;28;1030;-56
2023/09/29 00:07:18;;;;;;;9.07;6.13;;;23.20;54.50;;;;;;352702;28;1047;-55
2023/09/29 00:07:29;;;;;;;9.57;6.22;;;23.20;54.50;;;;;;352564;28;1111;-56
2023/09/29 00:07:39;;;;;;;9.77;6.20;;;23.20;54.50;;;;;;352688;28;900;-56
2023/09/29 00:07:53;;;;;;;10.27;6.40;;;23.10;54.50;;;;;;352679;28;838;-56
2023/09/29 00:08:06;;;;;;;9.45;6.38;;;23.20;54.50;;;;;;352705;28;872;-55
2023/09/29 00:08:17;;;;;;;10.40;6.35;;;23.20;54.50;;;;;;352606;28;1039;-56
2023/09/29 00:08:28;;;;;;;10.13;6.37;;;23.10;54.50;;;;;;352606;28;1146;-56
2023/09/29 00:08:39;;;;;;;8.70;6.43;;;23.20;54.40;;;;;;352660;28;971;-56
2023/09/29 00:08:50;;;;;;;9.77;6.40;;;23.20;54.50;;;;;;352709;28;1940;-57
2023/09/29 00:09:02;;;;;;;10.55;6.40;;;23.10;54.50;;;;;;352594;28;937;-56
2023/09/29 00:09:12;;;;;;;9.73;6.30;;;23.10;54.50;;;;;;352760;28;849;-56
2023/09/29 00:09:23;;;;;;;9.13;6.10;;;23.10;54.50;;;;;;352632;28;1034;-56
2023/09/29 00:09:34;;;;;;;8.40;6.10;;;23.10;54.40;;;;;;352667;28;1011;-56
2023/09/29 00:09:45;;;;;;;8.55;5.93;;;23.10;54.40;;;;;;352594;28;1114;-56
2023/09/29 00:09:55;;;;;;;8.17;6.00;;;23.20;54.50;;;;;;352714;28;1003;-56
2023/09/29 00:10:08;;;;;;;8.48;5.88;;;23.10;54.50;;;;;;352634;28;915;-56
2023/09/29 00:10:20;;;;;;;8.02;6.10;;;23.10;54.50;;;;;;352637;28;991;-57
2023/09/29 00:10:31;;;;;;;9.25;6.70;;;23.10;54.60;;;;;;352698;28;999;-56
2023/09/29 00:10:43;;;;;;;9.57;7.00;;;23.10;54.60;;;;;;352679;28;1034;-58
2023/09/29 00:10:53;;;;;;;9.93;7.00;;;23.10;54.60;;;;;;352640;28;979;-56
2023/09/29 00:11:04;;;;;;;9.57;7.03;;;23.10;54.60;;;;;;352632;28;1410;-56
2023/09/29 00:11:15;;;;;;;9.15;6.88;;;23.10;54.60;;;;;;352592;28;1091;-56
2023/09/29 00:11:26;;;;;;;9.03;6.67;;;23.10;54.60;;;;;;352776;28;856;-56
2023/09/29 00:11:37;;;;;;;9.60;6.57;;;23.10;54.60;;;;;;352614;28;1110;-56
2023/09/29 00:11:48;;;;;;;9.60;6.88;;;23.10;54.60;;;;;;352650;28;1078;-56
2023/09/29 00:11:59;;;;;;;9.13;7.10;;;23.10;54.60;;;;;;352690;28;896;-56
2023/09/29 00:12:10;;;;;;;9.57;6.80;;;23.10;54.70;;;;;;352582;28;1115;-55
2023/09/29 00:12:20;;;;;;;10.27;6.80;;;23.10;54.70;;;;;;352623;28;861;-56
2023/09/29 00:12:31;;;;;;;10.40;6.70;;;23.10;54.70;;;;;;352742;28;978;-56
2023/09/29 00:12:43;;;;;;;10.73;6.65;;;23.10;54.70;;;;;;352567;28;2716;-57
2023/09/29 00:12:53;;;;;;;9.95;6.45;;;23.10;54.70;;;;;;352615;28;1101;-56
2023/09/29 00:13:04;;;;;;;9.23;6.10;;;23.10;54.60;;;;;;352692;28;966;-56
2023/09/29 00:13:15;;;;;;;9.27;6.40;;;23.10;54.70;;;;;;352640;28;1161;-56
2023/09/29 00:13:26;;;;;;;9.95;6.35;;;23.10;54.70;;;;;;352592;28;1548;-56
2023/09/29 00:13:37;;;;;;;10.57;6.50;;;23.10;54.70;;;;;;352725;28;1003;-57
2023/09/29 00:13:47;;;;;;;11.57;6.43;;;23.10;54.60;;;;;;352677;28;1832;-57
2023/09/29 00:13:59;;;;;;;11.80;6.30;;;23.10;54.70;;;;;;352669;28;1282;-56
2023/09/29 00:14:09;;;;;;;11.98;6.25;;;23.10;54.70;;;;;;352582;28;1902;-56
2023/09/29 00:14:20;;;;;;;10.33;6.07;;;23.10;54.60;;;;;;352727;28;920;-56
2023/09/29 00:14:31;;;;;;;9.50;6.00;;;23.10;54.60;;;;;;352559;28;1024;-55
2023/09/29 00:14:42;;;;;;;8.95;6.10;;;23.10;54.60;;;;;;352702;28;1272;-57
2023/09/29 00:14:52;;;;;;;9.13;6.45;;;23.10;54.70;;;;;;352566;28;1110;-56
2023/09/29 00:15:06;;;;;;;9.30;6.50;;;23.10;54.70;;;;;;352660;28;962;-56
2023/09/29 00:15:19;;;;;;;9.70;6.38;;;23.10;54.70;;;;;;352623;28;950;-56
2023/09/29 00:15:32;;;;;;;10.10;6.13;;;23.10;54.70;;;;;;352672;28;1073;-55
2023/09/29 00:15:43;;;;;;;9.55;6.10;;;23.10;54.60;;;;;;352591;28;994;-56
2023/09/29 00:15:54;;;;;;;9.85;6.25;;;23.10;54.70;;;;;;352692;28;896;-56
2023/09/29 00:16:04;;;;;;;9.68;6.28;;;23.10;54.70;;;;;;352561;28;1038;-56
2023/09/29 00:16:15;;;;;;;10.05;6.35;;;23.10;54.70;;;;;;352729;28;1065;-57
2023/09/29 00:16:26;;;;;;;9.93;6.37;;;23.10;54.80;;;;;;352557;28;1098;-57
2023/09/29 00:16:37;;;;;;;12.52;6.57;;;23.10;54.80;;;;;;352656;28;887;-57
2023/09/29 00:16:47;;;;;;;11.20;6.22;;;23.10;54.80;;;;;;352566;28;967;-56
2023/09/29 00:16:58;;;;;;;9.55;6.35;;;23.10;54.80;;;;;;352690;28;1003;-57
2023/09/29 00:17:09;;;;;;;7.53;6.30;;;23.10;54.80;;;;;;352587;28;1086;-56
2023/09/29 00:17:19;;;;;;;8.15;6.70;;;23.10;54.80;;;;;;352626;28;1908;-56
2023/09/29 00:17:31;;;;;;;8.98;7.03;;;23.10;54.80;;;;;;352568;28;1027;-56
2023/09/29 00:17:42;;;;;;;10.75;7.07;;;23.10;54.80;;;;;;352682;28;1065;-56
2023/09/29 00:17:52;;;;;;;10.15;6.85;;;23.10;54.80;;;;;;352546;27;1584;-56
2023/09/29 00:18:03;;;;;;;10.07;6.32;;;23.10;54.90;;;;;;352660;28;1955;-56
2023/09/29 00:18:15;;;;;;;9.55;6.57;;;23.10;54.80;;;;;;352641;28;1822;-58
2023/09/29 00:18:26;;;;;;;10.25;6.50;;;23.10;54.80;;;;;;352678;28;864;-56
2023/09/29 00:18:37;;;;;;;9.93;6.73;;;23.10;54.80;;;;;;352518;27;1058;-56
2023/09/29 00:18:48;;;;;;;8.57;6.63;;;23.10;54.80;;;;;;352590;28;1049;-56
2023/09/29 00:18:58;;;;;;;8.90;6.97;;;23.10;54.80;;;;;;352512;28;1912;-58
2023/09/29 00:19:09;;;;;;;9.10;7.03;;;23.10;54.90;;;;;;352587;28;1470;-56
2023/09/29 00:19:20;;;;;;;9.15;6.85;;;23.10;54.90;;;;;;352670;28;1689;-56
2023/09/29 00:19:30;;;;;;;8.63;6.27;;;23.10;54.90;;;;;;352593;28;968;-56
2023/09/29 00:19:41;;;;;;;8.60;6.00;;;23.10;54.80;;;;;;352637;28;1961;-56
2023/09/29 00:19:52;;;;;;;7.97;6.00;;;23.10;54.80;;;;;;352674;28;847;-56
2023/09/29 00:20:36;;;;;;;14.30;6.60;;;23.10;54.90;;;;;;352514;28;1010;-56
2023/09/29 00:20:47;;;;;;;12.75;6.50;;;23.00;55.00;;;;;;352707;28;888;-55
2023/09/29 00:20:58;;;;;;;11.30;6.40;;;23.10;55.00;;;;;;352636;28;1094;-56
2023/09/29 00:21:08;;;;;;;10.13;6.28;;;23.00;55.00;;;;;;352541;28;1106;-56
2023/09/29 00:21:19;;;;;;;9.35;6.35;;;23.10;55.00;;;;;;352663;28;1275;-56
2023/09/29 00:21:30;;;;;;;10.53;6.57;;;23.10;55.00;;;;;;352687;28;914;-57
2023/09/29 00:21:41;;;;;;;10.95;6.82;;;23.10;55.00;;;;;;352502;28;1110;-56
2023/09/29 00:21:51;;;;;;;11.60;6.88;;;23.00;55.00;;;;;;352643;28;848;-57
2023/09/29 00:22:04;;;;;;;10.23;6.87;;;23.10;55.00;;;;;;352625;28;1475;-56
2023/09/29 00:22:14;;;;;;;10.05;6.82;;;23.10;55.00;;;;;;352633;28;947;-56
2023/09/29 00:22:25;;;;;;;9.53;6.77;;;23.00;54.90;;;;;;352628;28;1085;-58
2023/09/29 00:22:37;;;;;;;9.80;6.97;;;23.00;54.90;;;;;;352689;28;1077;-57
2023/09/29 00:22:48;;;;;;;11.57;7.30;;;23.00;54.90;;;;;;352623;28;1101;-57
2023/09/29 00:23:00;;;;;;;11.40;7.47;;;23.10;55.00;;;;;;352587;28;1505;-56
2023/09/29 00:23:12;;;;;;;9.85;7.20;;;23.00;55.00;;;;;;352614;28;1201;-57
2023/09/29 00:23:24;;;;;;;9.10;7.18;;;23.00;55.00;;;;;;352537;28;1189;-56
2023/09/29 00:23:35;;;;;;;11.90;7.00;;;23.10;55.00;;;;;;352678;28;1355;-56
2023/09/29 00:23:45;;;;;;;10.55;6.80;;;23.10;55.00;;;;;;352672;28;970;-56
2023/09/29 00:23:56;;;;;;;10.68;7.00;;;23.00;55.10;;;;;;352652;28;882;-56
2023/09/29 00:24:07;;;;;;;8.70;6.90;;;23.10;55.10;;;;;;352675;28;847;-56
2023/09/29 00:24:17;;;;;;;8.82;6.82;;;23.10;55.10;;;;;;352598;27;1552;-57
2023/09/29 00:24:29;;;;;;;8.38;6.65;;;23.10;55.10;;;;;;352658;28;1309;-57
2023/09/29 00:24:40;;;;;;;8.90;6.63;;;23.00;55.10;;;;;;352572;28;1030;-56
2023/09/29 00:24:50;;;;;;;9.65;6.25;;;23.10;55.10;;;;;;352608;28;1904;-56
2023/09/29 00:25:01;;;;;;;10.43;6.40;;;23.00;55.10;;;;;;352654;28;833;-56
2023/09/29 00:25:12;;;;;;;10.90;6.80;;;23.10;55.10;;;;;;352622;28;1433;-56
2023/09/29 00:25:26;;;;;;;10.80;7.00;;;23.10;55.10;;;;;;352703;28;963;-56
2023/09/29 00:25:36;;;;;;;9.02;6.68;;;23.10;55.10;;;;;;352547;28;1158;-56
2023/09/29 00:25:47;;;;;;;9.88;6.60;;;23.00;55.10;;;;;;352664;28;1098;-56
2023/09/29 00:25:58;;;;;;;9.02;6.60;;;23.00;55.00;;;;;;352652;28;1030;-56
2023/09/29 00:26:09;;;;;;;8.70;6.47;;;23.00;55.00;;;;;;352679;28;860;-56
2023/09/29 00:26:20;;;;;;;7.55;6.40;;;23.00;55.00;;;;;;352575;28;2072;-57
2023/09/29 00:26:31;;;;;;;8.45;6.30;;;23.00;55.00;;;;;;352688;28;852;-58
2023/09/29 00:26:42;;;;;;;8.93;6.50;;;23.10;55.10;;;;;;352659;28;940;-57
2023/09/29 00:26:52;;;;;;;9.67;6.70;;;23.10;55.10;;;;;;352602;28;1118;-56
2023/09/29 00:27:03;;;;;;;10.13;6.93;;;23.10;55.10;;;;;;352640;28;966;-56
2023/09/29 00:27:14;;;;;;;11.35;7.05;;;23.10;55.10;;;;;;352491;28;1571;-56
2023/09/29 00:27:24;;;;;;;10.98;7.10;;;23.10;55.10;;;;;;352627;28;1566;-56
2023/09/29 00:27:35;;;;;;;11.17;7.03;;;23.10;55.10;;;;;;352774;28;983;-56
2023/09/29 00:27:47;;;;;;;11.13;6.80;;;23.10;55.10;;;;;;352627;28;1106;-56
2023/09/29 00:27:57;;;;;;;10.57;6.50;;;23.10;55.10;;;;;;352680;28;840;-58
2023/09/29 00:28:10;;;;;;;9.20;6.30;;;23.10;55.00;;;;;;352619;28;934;-57
2023/09/29 00:28:21;;;;;;;8.68;6.57;;;23.10;55.00;;;;;;352697;28;925;-56
2023/09/29 00:28:33;;;;;;;10.05;6.65;;;23.10;55.00;;;;;;352563;28;1467;-57
2023/09/29 00:28:44;;;;;;;10.02;6.78;;;23.00;55.00;;;;;;352639;28;1101;-56
2023/09/29 00:28:55;;;;;;;8.80;6.90;;;23.00;55.00;;;;;;352565;28;1100;-56
2023/09/29 00:29:06;;;;;;;8.35;6.82;;;23.10;55.00;;;;;;352675;28;846;-56
2023/09/29 00:29:17;;;;;;;9.83;6.90;;;23.10;55.00;;;;;;352599;28;1006;-56
2023/09/29 00:29:28;;;;;;;9.00;6.55;;;23.00;55.10;;;;;;352571;28;1418;-56
2023/09/29 00:29:39;;;;;;;9.20;6.60;;;23.10;55.10;;;;;;352544;28;1057;-56
2023/09/29 00:29:53;;;;;;;10.13;6.72;;;23.10;55.10;;;;;;352690;28;911;-56
2023/09/29 00:30:05;;;;;;;10.50;6.60;;;23.10;55.10;;;;;;352601;28;1738;-56
2023/09/29 00:30:16;;;;;;;10.43;6.72;;;23.10;55.10;;;;;;352663;28;1031;-56
2023/09/29 00:30:27;;;;;;;11.10;7.07;;;23.00;55.10;;;;;;352570;27;1185;-57
2023/09/29 00:30:38;;;;;;;11.10;7.18;;;23.10;55.10;;;;;;352632;28;904;-56
2023/09/29 00:30:49;;;;;;;10.35;6.88;;;23.10;55.10;;;;;;352567;28;975;-58
2023/09/29 00:30:59;;;;;;;9.25;6.57;;;23.10;55.10;;;;;;352617;28;1050;-56
2023/09/29 00:31:10;;;;;;;8.63;6.63;;;23.10;55.00;;;;;;352598;28;1077;-56
2023/09/29 00:31:21;;;;;;;9.73;6.97;;;23.10;55.00;;;;;;352671;28;1026;-55
2023/09/29 00:31:33;;;;;;;11.20;6.95;;;23.10;55.00;;;;;;352667;28;986;-56
2023/09/29 00:31:43;;;;;;;10.73;7.07;;;23.10;55.00;;;;;;352662;28;995;-55
2023/09/29 00:31:54;;;;;;;9.05;6.90;;;23.10;55.00;;;;;;352565;28;1090;-54
2023/09/29 00:32:05;;;;;;;9.68;6.80;;;23.10;55.00;;;;;;352645;28;817;-56
2023/09/29 00:32:16;;;;;;;10.67;6.70;;;23.10;55.00;;;;;;352660;28;1052;-55
2023/09/29 00:32:26;;;;;;;11.27;6.80;;;23.10;55.00;;;;;;352641;28;833;-56
2023/09/29 00:32:42;;;;;;;11.02;7.10;;;23.10;55.00;;;;;;352562;28;1854;-56
2023/09/29 00:32:53;;;;;;;11.20;6.93;;;23.10;55.00;;;;;;352618;28;1130;-55
2023/09/29 00:33:05;;;;;;;10.13;6.20;;;23.10;54.90;;;;;;352717;28;931;-56
2023/09/29 00:33:16;;;;;;;9.48;6.53;;;23.10;54.90;;;;;;352719;28;886;-57
2023/09/29 00:33:26;;;;;;;8.83;6.57;;;23.10;54.90;;;;;;352638;28;906;-56
2023/09/29 00:33:37;;;;;;;8.70;6.93;;;23.10;54.90;;;;;;352579;28;1043;-56
2023/09/29 00:33:48;;;;;;;8.35;6.72;;;23.10;54.90;;;;;;352678;28;994;-56
2023/09/29 00:33:58;;;;;;;10.03;7.00;;;23.10;54.80;;;;;;352577;28;1522;-56
2023/09/29 00:34:09;;;;;;;9.65;6.72;;;23.10;54.90;;;;;;352568;28;1049;-56
2023/09/29 00:34:20;;;;;;;9.82;6.55;;;23.10;54.80;;;;;;352617;28;892;-56
2023/09/29 00:34:31;;;;;;;8.02;6.20;;;23.10;54.80;;;;;;352628;28;1026;-56
2023/09/29 00:34:41;;;;;;;8.93;6.03;;;23.10;54.80;;;;;;352548;28;1130;-56
2023/09/29 00:34:52;;;;;;;9.53;6.40;;;23.10;54.80;;;;;;352617;28;801;-56
2023/09/29 00:35:04;;;;;;;10.02;6.70;;;23.10;54.90;;;;;;352583;28;1074;-56
2023/09/29 00:35:33;;;;;;;9.77;6.88;;;23.10;54.90;;;;;;352555;28;1066;-57
2023/09/29 00:35:43;;;;;;;9.05;6.95;;;23.10;55.00;;;;;;352601;28;1012;-57
2023/09/29 00:35:54;;;;;;;9.38;7.03;;;23.00;54.90;;;;;;352587;28;999;-56
2023/09/29 00:36:05;;;;;;;9.60;7.27;;;23.00;55.00;;;;;;352617;28;1011;-57
2023/09/29 00:36:16;;;;;;;9.27;7.15;;;23.10;55.00;;;;;;352566;28;909;-55
2023/09/29 00:36:27;;;;;;;9.93;6.97;;;23.10;55.00;;;;;;352666;28;919;-56
2023/09/29 00:36:39;;;;;;;9.75;6.70;;;23.10;55.00;;;;;;352602;28;1073;-55
2023/09/29 00:36:51;;;;;;;9.68;6.50;;;23.10;55.00;;;;;;352491;28;1373;-57
2023/09/29 00:37:05;;;;;;;8.88;6.30;;;23.10;55.00;;;;;;352637;28;1078;-56
2023/09/29 00:37:16;;;;;;;9.18;6.57;;;23.00;55.00;;;;;;352617;28;1909;-57
2023/09/29 00:37:27;;;;;;;9.85;7.13;;;23.10;55.00;;;;;;352554;28;1304;-56
2023/09/29 00:37:40;;;;;;;10.23;7.30;;;23.00;55.00;;;;;;352690;28;1007;-56
2023/09/29 00:37:51;;;;;;;9.07;6.85;;;23.00;55.00;;;;;;352704;28;906;-56
2023/09/29 00:38:02;;;;;;;8.43;6.90;;;23.00;55.00;;;;;;352533;28;1042;-56
2023/09/29 00:38:13;;;;;;;9.70;7.00;;;23.00;55.00;;;;;;352607;28;1114;-55
2023/09/29 00:38:24;;;;;;;12.30;7.13;;;23.00;55.00;;;;;;352611;28;1230;-56
2023/09/29 00:38:34;;;;;;;13.18;7.18;;;23.00;55.00;;;;;;352605;28;1099;-57
2023/09/29 00:38:46;;;;;;;10.77;7.00;;;23.00;55.10;;;;;;352612;28;1057;-56
2023/09/29 00:38:57;;;;;;;8.90;6.72;;;23.00;55.10;;;;;;352704;28;909;-57
2023/09/29 00:39:11;;;;;;;9.23;6.60;;;23.00;55.10;;;;;;352572;28;1019;-55
2023/09/29 00:39:22;;;;;;;10.95;6.85;;;23.00;55.10;;;;;;352664;28;1042;-55
2023/09/29 00:39:33;;;;;;;9.98;7.05;;;23.00;55.10;;;;;;352607;28;1011;-56
2023/09/29 00:39:43;;;;;;;9.23;6.67;;;23.00;55.10;;;;;;352620;28;1166;-56
2023/09/29 00:39:55;;;;;;;8.65;7.00;;;23.00;55.10;;;;;;352610;28;848;-56
2023/09/29 00:40:12;;;;;;;11.40;7.63;;;23.00;55.10;;;;;;352598;28;935;-56
2023/09/29 00:40:23;;;;;;;11.55;7.60;;;23.00;55.20;;;;;;352599;28;1134;-55
2023/09/29 00:40:35;;;;;;;8.60;7.18;;;23.00;55.20;;;;;;352647;28;991;-56
2023/09/29 00:40:45;;;;;;;8.45;7.28;;;23.00;55.20;;;;;;352654;28;918;-55
2023/09/29 00:40:56;;;;;;;11.32;7.32;;;23.00;55.20;;;;;;352542;28;1676;-56
2023/09/29 00:41:08;;;;;;;11.75;7.18;;;23.00;55.20;;;;;;352666;28;816;-56
2023/09/29 00:41:18;;;;;;;12.55;7.13;;;23.00;55.20;;;;;;352655;28;1162;-56
2023/09/29 00:41:30;;;;;;;10.88;7.00;;;23.00;55.20;;;;;;352544;28;1127;-55
2023/09/29 00:41:41;;;;;;;12.23;6.82;;;23.00;55.30;;;;;;352656;28;1061;-58
2023/09/29 00:41:52;;;;;;;11.48;6.60;;;23.00;55.30;;;;;;352613;28;1028;-55
2023/09/29 00:42:06;;;;;;;10.95;6.63;;;23.10;55.30;;;;;;352598;28;988;-55
2023/09/29 00:42:17;;;;;;;10.98;6.95;;;23.00;55.30;;;;;;352643;28;956;-55
2023/09/29 00:42:27;;;;;;;10.18;7.00;;;23.00;55.30;;;;;;352618;28;904;-55
2023/09/29 00:42:41;;;;;;;10.03;6.87;;;23.00;55.30;;;;;;352600;28;1198;-55
2023/09/29 00:42:53;;;;;;;9.90;6.60;;;23.00;55.30;;;;;;352533;28;975;-56
2023/09/29 00:43:04;;;;;;;9.25;6.53;;;23.00;55.30;;;;;;352590;28;1138;-57
2023/09/29 00:43:15;;;;;;;9.75;6.65;;;23.00;55.30;;;;;;352675;28;861;-56
2023/09/29 00:43:27;;;;;;;11.68;7.10;;;23.00;55.30;;;;;;352622;27;1142;-56
2023/09/29 00:43:38;;;;;;;11.15;6.88;;;23.00;55.40;;;;;;352589;28;1116;-56
2023/09/29 00:43:50;;;;;;;9.88;7.13;;;23.00;55.40;;;;;;352692;28;1047;-56
2023/09/29 00:44:01;;;;;;;8.90;6.93;;;23.00;55.40;;;;;;352652;28;982;-56
2023/09/29 00:44:11;;;;;;;8.80;6.93;;;23.00;55.40;;;;;;352676;28;903;-56
2023/09/29 00:44:22;;;;;;;10.25;6.72;;;23.00;55.40;;;;;;352649;28;1023;-55
2023/09/29 00:44:33;;;;;;;11.35;6.95;;;23.00;55.30;;;;;;352561;27;1325;-56
2023/09/29 00:44:45;;;;;;;10.77;7.13;;;23.00;55.40;;;;;;352576;28;992;-55
2023/09/29 00:44:55;;;;;;;10.18;7.07;;;23.00;55.40;;;;;;352707;28;895;-56
2023/09/29 00:45:07;;;;;;;10.57;7.00;;;23.00;55.50;;;;;;352500;28;975;-56
2023/09/29 00:45:22;;;;;;;8.90;6.75;;;23.00;55.50;;;;;;352696;27;1034;-56
2023/09/29 00:45:33;;;;;;;9.07;6.97;;;23.00;55.50;;;;;;352589;28;1010;-56
2023/09/29 00:45:47;;;;;;;10.57;7.07;;;23.00;55.50;;;;;;352624;28;959;-56
2023/09/29 00:46:00;;;;;;;9.00;6.55;;;23.00;55.50;;;;;;352603;28;895;-55
2023/09/29 00:46:12;;;;;;;8.07;6.30;;;23.00;55.60;;;;;;352655;28;860;-57
2023/09/29 00:46:25;;;;;;;7.72;6.60;;;23.00;55.60;;;;;;352601;28;1031;-55
2023/09/29 00:46:36;;;;;;;9.30;7.10;;;23.00;55.60;;;;;;352688;28;836;-57
2023/09/29 00:46:47;;;;;;;9.57;7.30;;;23.00;55.70;;;;;;352592;28;940;-56
2023/09/29 00:46:58;;;;;;;10.30;7.10;;;22.90;55.70;;;;;;352642;28;1003;-56
2023/09/29 00:47:09;;;;;;;10.70;7.07;;;22.90;55.70;;;;;;352684;28;892;-57
2023/09/29 00:47:20;;;;;;;10.80;7.40;;;23.00;55.70;;;;;;352576;28;1035;-56
2023/09/29 00:47:31;;;;;;;10.23;7.30;;;22.90;55.70;;;;;;352640;27;1065;-55
2023/09/29 00:47:45;;;;;;;9.18;6.93;;;22.90;55.70;;;;;;352605;28;1095;-56
2023/09/29 00:48:10;;;;;;;9.55;7.00;;;23.00;55.70;;;;;;352581;28;1031;-55
2023/09/29 00:48:22;;;;;;;9.30;6.93;;;22.90;55.80;;;;;;352564;28;974;-56
2023/09/29 00:48:33;;;;;;;9.05;6.80;;;22.90;55.80;;;;;;352631;28;849;-56
2023/09/29 00:48:44;;;;;;;9.32;6.95;;;22.90;55.80;;;;;;352676;28;856;-56
2023/09/29 00:48:55;;;;;;;8.93;6.88;;;22.90;55.80;;;;;;352567;28;1046;-56
2023/09/29 00:49:06;;;;;;;8.85;6.80;;;22.90;55.90;;;;;;352625;28;1022;-56
2023/09/29 00:49:17;;;;;;;8.40;6.50;;;22.90;55.80;;;;;;352632;28;1110;-56
2023/09/29 00:49:29;;;;;;;8.80;6.60;;;22.90;55.80;;;;;;352575;28;1087;-56
2023/09/29 00:49:40;;;;;;;8.10;6.35;;;22.90;55.70;;;;;;352599;28;1151;-56
2023/09/29 00:49:51;;;;;;;8.73;6.43;;;22.90;55.70;;;;;;352574;28;1319;-56
2023/09/29 00:50:05;;;;;;;9.27;6.55;;;22.90;55.70;;;;;;352553;28;1005;-57
2023/09/29 00:50:18;;;;;;;9.45;6.65;;;22.90;55.60;;;;;;352688;27;987;-56
2023/09/29 00:50:29;;;;;;;9.32;6.75;;;22.90;55.50;;;;;;352559;28;1102;-56
2023/09/29 00:50:41;;;;;;;10.00;7.15;;;22.90;55.50;;;;;;352632;28;1272;-56
2023/09/29 00:50:52;;;;;;;11.13;7.47;;;22.90;55.60;;;;;;352612;28;1101;-56
2023/09/29 00:51:03;;;;;;;10.90;7.13;;;22.90;55.50;;;;;;352634;28;828;-56
2023/09/29 00:51:13;;;;;;;9.38;6.97;;;22.90;55.50;;;;;;352583;28;864;-56
2023/09/29 00:51:25;;;;;;;9.27;6.90;;;22.90;55.50;;;;;;352557;28;1081;-57
2023/09/29 00:51:35;;;;;;;11.27;6.88;;;22.90;55.60;;;;;;352665;28;1090;-57
2023/09/29 00:51:47;;;;;;;11.35;6.70;;;22.90;55.60;;;;;;352658;28;895;-56
2023/09/29 00:51:59;;;;;;;10.80;6.53;;;22.80;55.50;;;;;;352590;27;1871;-56
2023/09/29 00:52:12;;;;;;;9.07;6.55;;;22.80;55.50;;;;;;352570;28;1392;-56
2023/09/29 00:52:23;;;;;;;10.18;6.47;;;22.80;55.50;;;;;;352478;28;1602;-56
2023/09/29 00:52:38;;;;;;;9.40;6.50;;;22.80;55.50;;;;;;352637;28;1043;-56
2023/09/29 00:52:52;;;;;;;10.05;6.57;;;22.80;55.50;;;;;;352477;28;1181;-57
2023/09/29 00:53:07;;;;;;;9.84;6.60;;;22.80;55.50;;;;;;352601;27;1888;-56
2023/09/29 00:53:19;;;;;;;8.48;6.63;;;22.80;55.50;;;;;;352582;28;1056;-55
2023/09/29 00:53:30;;;;;;;10.35;6.60;;;22.80;55.50;;;;;;352670;28;943;-57
2023/09/29 00:53:42;;;;;;;10.65;6.43;;;22.80;55.50;;;;;;352528;28;1126;-56
2023/09/29 00:53:53;;;;;;;9.88;6.12;;;22.80;55.50;;;;;;352573;28;1119;-56
2023/09/29 00:54:08;;;;;;;9.10;6.30;;;22.80;55.50;;;;;;352650;28;872;-55
2023/09/29 00:54:20;;;;;;;9.13;6.47;;;22.80;55.50;;;;;;352639;28;912;-56
2023/09/29 00:54:32;;;;;;;7.65;6.20;;;22.80;55.50;;;;;;352665;27;1297;-56
2023/09/29 00:54:45;;;;;;;8.90;6.47;;;22.80;55.60;;;;;;352516;28;1148;-56
2023/09/29 00:54:56;;;;;;;9.82;6.50;;;22.70;55.60;;;;;;352632;27;884;-57
2023/09/29 00:55:15;;;;;;;10.82;6.70;;;22.70;55.60;;;;;;352527;28;904;-56
2023/09/29 00:55:29;;;;;;;9.25;6.47;;;22.70;55.60;;;;;;352608;28;963;-56
2023/09/29 00:55:44;;;;;;;8.27;6.28;;;22.70;55.70;;;;;;352527;28;959;-56
2023/09/29 00:55:55;;;;;;;8.75;6.38;;;22.70;55.70;;;;;;352646;27;1082;-56
2023/09/29 00:56:06;;;;;;;8.38;6.55;;;22.70;55.70;;;;;;352517;28;1221;-56
2023/09/29 00:56:17;;;;;;;9.15;6.55;;;22.70;55.80;;;;;;352526;28;1471;-56
2023/09/29 00:56:28;;;;;;;9.80;6.60;;;22.70;55.80;;;;;;352453;28;1458;-56
2023/09/29 00:56:39;;;;;;;10.30;6.57;;;22.70;55.80;;;;;;352592;28;1106;-56
2023/09/29 00:56:50;;;;;;;10.32;6.53;;;22.70;55.80;;;;;;352531;28;1019;-56
2023/09/29 00:57:04;;;;;;;9.95;6.45;;;22.70;55.80;;;;;;352603;28;1090;-57
2023/09/29 00:57:16;;;;;;;9.90;6.35;;;22.70;55.80;;;;;;352452;28;1905;-56
2023/09/29 00:57:28;;;;;;;11.20;6.30;;;22.70;55.80;;;;;;352704;28;832;-57
2023/09/29 00:57:44;;;;;;;9.93;6.40;;;22.70;55.80;;;;;;352546;28;1057;-56
2023/09/29 00:57:57;;;;;;;8.18;6.78;;;22.70;55.80;;;;;;352635;27;1022;-57
2023/09/29 00:58:08;;;;;;;9.70;6.82;;;22.70;55.80;;;;;;352542;28;1847;-57
2023/09/29 00:58:19;;;;;;;10.35;6.70;;;22.70;55.80;;;;;;352578;28;1186;-56
2023/09/29 00:58:30;;;;;;;9.53;6.67;;;22.70;55.80;;;;;;352493;28;1002;-56
2023/09/29 00:58:42;;;;;;;9.27;6.22;;;22.70;55.80;;;;;;352651;28;868;-58
2023/09/29 00:58:55;;;;;;;9.07;6.07;;;22.70;55.80;;;;;;352551;28;1062;-56
2023/09/29 00:59:09;;;;;;;9.32;6.13;;;22.70;55.80;;;;;;352637;28;1109;-57
2023/09/29 00:59:20;;;;;;;9.10;6.25;;;22.70;55.80;;;;;;352525;28;1448;-57
2023/09/29 00:59:32;;;;;;;8.27;6.22;;;22.70;55.80;;;;;;352628;28;1079;-56
2023/09/29 00:59:43;;;;;;;10.15;6.50;;;22.70;55.80;;;;;;352584;28;1006;-57
2023/09/29 00:59:57;;;;;;;10.82;6.97;;;22.70;55.80;;;;;;352618;28;1043;-56
2023/09/29 01:00:14;;;;;;;9.63;6.78;;;22.70;55.90;;;;;;352559;28;883;-57
2023/09/29 01:00:41;;;;;;;9.65;6.53;;;22.60;55.90;;;;;;352532;28;1077;-58
2023/09/29 01:00:52;;;;;;;8.40;6.28;;;22.60;55.90;;;;;;352614;28;1506;-58
2023/09/29 01:01:06;;;;;;;9.00;6.30;;;22.60;55.90;;;;;;352520;28;1189;-56
2023/09/29 01:01:19;;;;;;;8.65;6.50;;;22.70;55.90;;;;;;352598;28;1213;-56
2023/09/29 01:01:30;;;;;;;8.25;6.57;;;22.70;56.00;;;;;;352516;28;1133;-56
2023/09/29 01:01:41;;;;;;;8.70;6.53;;;22.60;55.90;;;;;;352626;28;1808;-57
2023/09/29 01:01:52;;;;;;;9.65;6.70;;;22.70;55.90;;;;;;352607;28;991;-56
2023/09/29 01:02:05;;;;;;;10.23;6.60;;;22.60;55.90;;;;;;352492;28;1115;-56
2023/09/29 01:02:17;;;;;;;10.13;6.50;;;22.70;55.90;;;;;;352676;28;860;-55
2023/09/29 01:02:28;;;;;;;10.63;6.88;;;22.60;55.90;;;;;;352391;28;935;-57
2023/09/29 01:02:39;;;;;;;9.95;6.88;;;22.60;55.90;;;;;;352372;28;1035;-56
2023/09/29 01:02:51;;;;;;;9.80;6.68;;;22.70;55.90;;;;;;352390;28;877;-56